sensor_id;sensor_type;location;lat;lon;timestamp;pressure;altitude;pressure_sealevel;temperature;humidity
6530;BME280;3298;42.688;23.366;2023-03-25T00:01:46;51803.06;;;-145.06;56.47
6530;BME280;3298;42.688;23.366;2023-03-25T00:04:12;51811.25;;;-145.06;56.48
6530;BME280;3298;42.688;23.366;2023-03-25T00:06:42;51792.81;;;-145.06;56.87
6530;BME280;3298;42.688;23.366;2023-03-25T00:09:08;51807.16;;;-145.06;56.95
6530;BME280;3298;42.688;23.366;2023-03-25T00:11:35;51782.59;;;-145.06;57.50
6530;BME280;3298;42.688;23.366;2023-03-25T00:14:02;51778.50;;;-145.06;57.43
6530;BME280;3298;42.688;23.366;2023-03-25T00:16:30;51762.13;;;-145.06;56.92
6530;BME280;3298;42.688;23.366;2023-03-25T00:18:57;51778.50;;;-145.06;57.20
6530;BME280;3298;42.688;23.366;2023-03-25T00:21:26;51778.50;;;-145.06;57.29
6530;BME280;3298;42.688;23.366;2023-03-25T00:23:54;51813.28;;;-145.06;58.18
6530;BME280;3298;42.688;23.366;2023-03-25T00:26:20;51790.78;;;-145.06;58.15
6530;BME280;3298;42.688;23.366;2023-03-25T00:28:47;51798.97;;;-145.06;58.70
6530;BME280;3298;42.688;23.366;2023-03-25T00:31:14;51778.50;;;-145.06;58.44
6530;BME280;3298;42.688;23.366;2023-03-25T00:33:42;51798.97;;;-145.06;59.49
6530;BME280;3298;42.688;23.366;2023-03-25T00:36:10;51790.78;;;-145.06;59.36
6530;BME280;3298;42.688;23.366;2023-03-25T00:38:39;51784.63;;;-145.06;59.38
6530;BME280;3298;42.688;23.366;2023-03-25T00:41:11;51796.91;;;-145.06;59.95
6530;BME280;3298;42.688;23.366;2023-03-25T00:43:39;51751.88;;;-145.06;60.04
6530;BME280;3298;42.688;23.366;2023-03-25T00:46:06;51776.44;;;-145.06;60.43
6530;BME280;3298;42.688;23.366;2023-03-25T00:48:33;51803.06;;;-145.06;59.52
6530;BME280;3298;42.688;23.366;2023-03-25T00:51:01;51786.69;;;-145.06;59.54
6530;BME280;3298;42.688;23.366;2023-03-25T00:53:33;51805.09;;;-145.06;59.30
6530;BME280;3298;42.688;23.366;2023-03-25T00:56:00;51784.63;;;-145.06;59.52
6530;BME280;3298;42.688;23.366;2023-03-25T00:58:28;51798.97;;;-145.06;60.21
6530;BME280;3298;42.688;23.366;2023-03-25T01:00:55;51819.44;;;-145.06;60.58
6530;BME280;3298;42.688;23.366;2023-03-25T01:03:22;51782.59;;;-145.06;60.42
6530;BME280;3298;42.688;23.366;2023-03-25T01:05:49;51809.19;;;-145.06;60.56
6530;BME280;3298;42.688;23.366;2023-03-25T01:08:20;51792.81;;;-145.06;60.71
6530;BME280;3298;42.688;23.366;2023-03-25T01:10:50;51798.97;;;-145.06;61.27
6530;BME280;3298;42.688;23.366;2023-03-25T01:13:18;51778.50;;;-145.06;61.71
6530;BME280;3298;42.688;23.366;2023-03-25T01:15:45;51798.97;;;-145.06;62.36
6530;BME280;3298;42.688;23.366;2023-03-25T01:18:11;51790.78;;;-145.06;62.16
6530;BME280;3298;42.688;23.366;2023-03-25T01:20:39;51782.59;;;-145.06;62.70
6530;BME280;3298;42.688;23.366;2023-03-25T01:23:05;51805.09;;;-145.06;62.49
6530;BME280;3298;42.688;23.366;2023-03-25T01:25:35;51798.97;;;-145.06;62.77
6530;BME280;3298;42.688;23.366;2023-03-25T01:28:02;51784.63;;;-145.06;62.74
6530;BME280;3298;42.688;23.366;2023-03-25T01:30:29;51803.06;;;-145.06;63.14
6530;BME280;3298;42.688;23.366;2023-03-25T01:32:56;51790.78;;;-145.06;62.36
6530;BME280;3298;42.688;23.366;2023-03-25T01:35:23;51794.88;;;-145.06;62.64
6530;BME280;3298;42.688;23.366;2023-03-25T01:37:49;51766.22;;;-145.06;62.82
6530;BME280;3298;42.688;23.366;2023-03-25T01:40:21;51776.44;;;-145.06;63.38
6530;BME280;3298;42.688;23.366;2023-03-25T01:42:50;51758.03;;;-145.06;63.09
6530;BME280;3298;42.688;23.366;2023-03-25T01:45:28;51821.47;;;-145.06;63.42
6530;BME280;3298;42.688;23.366;2023-03-25T01:48:01;51790.78;;;-145.06;63.82
6530;BME280;3298;42.688;23.366;2023-03-25T01:50:30;51790.78;;;-145.06;63.71
6530;BME280;3298;42.688;23.366;2023-03-25T01:53:00;51774.41;;;-145.06;62.15
6530;BME280;3298;42.688;23.366;2023-03-25T01:55:28;51780.53;;;-145.06;62.42
6530;BME280;3298;42.688;23.366;2023-03-25T01:58:01;51790.78;;;-145.06;62.64
6530;BME280;3298;42.688;23.366;2023-03-25T02:00:30;51798.97;;;-145.06;62.69
6530;BME280;3298;42.688;23.366;2023-03-25T02:02:58;51807.16;;;-145.06;62.80
6530;BME280;3298;42.688;23.366;2023-03-25T02:05:33;51794.88;;;-145.06;63.13
6530;BME280;3298;42.688;23.366;2023-03-25T02:08:04;51786.69;;;-145.06;62.15
6530;BME280;3298;42.688;23.366;2023-03-25T02:10:33;51774.41;;;-145.06;61.34
6530;BME280;3298;42.688;23.366;2023-03-25T02:13:04;51817.38;;;-145.06;61.73
6530;BME280;3298;42.688;23.366;2023-03-25T02:15:41;51786.69;;;-145.06;62.09
6530;BME280;3298;42.688;23.366;2023-03-25T02:18:23;51803.06;;;-145.06;63.37
6530;BME280;3298;42.688;23.366;2023-03-25T02:21:31;51796.91;;;-145.06;63.92
6530;BME280;3298;42.688;23.366;2023-03-25T02:27:16;51794.88;;;-145.06;64.30
6530;BME280;3298;42.688;23.366;2023-03-25T02:30:07;51776.44;;;-145.06;65.06
6530;BME280;3298;42.688;23.366;2023-03-25T02:33:04;51784.63;;;-145.06;65.22
6530;BME280;3298;42.688;23.366;2023-03-25T02:35:48;51766.22;;;-145.06;64.73
6530;BME280;3298;42.688;23.366;2023-03-25T02:38:26;51790.78;;;-145.06;64.51
6530;BME280;3298;42.688;23.366;2023-03-25T02:41:00;51790.78;;;-145.06;64.00
6530;BME280;3298;42.688;23.366;2023-03-25T02:43:32;51778.50;;;-145.06;63.79
6530;BME280;3298;42.688;23.366;2023-03-25T02:46:03;51753.94;;;-145.06;63.71
6530;BME280;3298;42.688;23.366;2023-03-25T02:48:36;51786.69;;;-145.06;63.73
6530;BME280;3298;42.688;23.366;2023-03-25T02:51:08;51780.53;;;-145.06;63.69
6530;BME280;3298;42.688;23.366;2023-03-25T02:53:40;51774.41;;;-145.06;63.48
6530;BME280;3298;42.688;23.366;2023-03-25T02:56:12;51784.63;;;-145.06;63.81
6530;BME280;3298;42.688;23.366;2023-03-25T02:58:43;51766.22;;;-145.06;64.24
6530;BME280;3298;42.688;23.366;2023-03-25T03:01:11;51760.06;;;-145.06;64.85
6530;BME280;3298;42.688;23.366;2023-03-25T03:03:39;51798.97;;;-145.06;64.92
6530;BME280;3298;42.688;23.366;2023-03-25T03:06:07;51794.88;;;-145.06;63.95
6530;BME280;3298;42.688;23.366;2023-03-25T03:08:48;51803.06;;;-145.06;64.24
6530;BME280;3298;42.688;23.366;2023-03-25T03:11:23;51776.44;;;-145.06;65.05
6530;BME280;3298;42.688;23.366;2023-03-25T03:13:59;51803.06;;;-145.06;65.53
6530;BME280;3298;42.688;23.366;2023-03-25T03:16:34;51786.69;;;-145.06;64.30
6530;BME280;3298;42.688;23.366;2023-03-25T03:19:09;51768.25;;;-145.06;64.71
6530;BME280;3298;42.688;23.366;2023-03-25T03:21:47;51776.44;;;-145.06;65.07
6530;BME280;3298;42.688;23.366;2023-03-25T03:24:23;51801.00;;;-145.06;65.22
6530;BME280;3298;42.688;23.366;2023-03-25T03:26:55;51766.22;;;-145.06;64.29
6530;BME280;3298;42.688;23.366;2023-03-25T03:29:26;51780.53;;;-145.06;63.94
6530;BME280;3298;42.688;23.366;2023-03-25T03:31:58;51758.03;;;-145.06;64.63
6530;BME280;3298;42.688;23.366;2023-03-25T03:34:30;51790.78;;;-145.06;64.73
6530;BME280;3298;42.688;23.366;2023-03-25T03:37:01;51790.78;;;-145.06;64.83
6530;BME280;3298;42.688;23.366;2023-03-25T03:39:32;51766.22;;;-145.06;64.80
6530;BME280;3298;42.688;23.366;2023-03-25T03:42:04;51805.09;;;-145.06;65.54
6530;BME280;3298;42.688;23.366;2023-03-25T03:44:34;51774.41;;;-145.06;66.58
6530;BME280;3298;42.688;23.366;2023-03-25T03:47:06;51778.50;;;-145.06;66.31
6530;BME280;3298;42.688;23.366;2023-03-25T03:49:39;51770.31;;;-145.06;66.47
6530;BME280;3298;42.688;23.366;2023-03-25T03:52:11;51774.41;;;-145.06;66.38
6530;BME280;3298;42.688;23.366;2023-03-25T03:54:44;51790.78;;;-145.06;67.00
6530;BME280;3298;42.688;23.366;2023-03-25T03:57:16;51794.88;;;-145.06;67.63
6530;BME280;3298;42.688;23.366;2023-03-25T03:59:50;51809.19;;;-145.06;67.44
6530;BME280;3298;42.688;23.366;2023-03-25T04:02:22;51766.22;;;-145.06;67.97
6530;BME280;3298;42.688;23.366;2023-03-25T04:04:52;51786.69;;;-145.06;68.03
6530;BME280;3298;42.688;23.366;2023-03-25T04:07:23;51778.50;;;-145.06;68.16
6530;BME280;3298;42.688;23.366;2023-03-25T04:09:58;51770.31;;;-145.06;67.78
6530;BME280;3298;42.688;23.366;2023-03-25T04:12:28;51778.50;;;-145.06;68.03
6530;BME280;3298;42.688;23.366;2023-03-25T04:14:56;51786.69;;;-145.06;67.90
6530;BME280;3298;42.688;23.366;2023-03-25T04:17:25;51770.31;;;-145.06;67.90
6530;BME280;3298;42.688;23.366;2023-03-25T04:19:54;51780.53;;;-145.06;67.66
6530;BME280;3298;42.688;23.366;2023-03-25T04:22:21;51782.59;;;-145.06;68.23
6530;BME280;3298;42.688;23.366;2023-03-25T04:24:48;51778.50;;;-145.06;68.18
6530;BME280;3298;42.688;23.366;2023-03-25T04:27:18;51782.59;;;-145.06;68.05
6530;BME280;3298;42.688;23.366;2023-03-25T04:29:47;51770.31;;;-145.06;68.87
6530;BME280;3298;42.688;23.366;2023-03-25T04:32:16;51786.69;;;-145.06;69.20
6530;BME280;3298;42.688;23.366;2023-03-25T04:34:43;51784.63;;;-145.06;68.42
6530;BME280;3298;42.688;23.366;2023-03-25T04:37:11;51786.69;;;-145.06;67.63
6530;BME280;3298;42.688;23.366;2023-03-25T04:39:38;51790.78;;;-145.06;67.14
6530;BME280;3298;42.688;23.366;2023-03-25T04:42:05;51819.44;;;-145.06;67.44
6530;BME280;3298;42.688;23.366;2023-03-25T04:44:34;51811.25;;;-145.06;67.89
6530;BME280;3298;42.688;23.366;2023-03-25T04:47:04;51803.06;;;-145.06;67.47
6530;BME280;3298;42.688;23.366;2023-03-25T04:49:32;51751.88;;;-145.06;66.47
6530;BME280;3298;42.688;23.366;2023-03-25T04:51:59;51780.53;;;-145.06;66.42
6530;BME280;3298;42.688;23.366;2023-03-25T04:54:28;51782.59;;;-145.06;67.11
6530;BME280;3298;42.688;23.366;2023-03-25T04:56:55;51780.53;;;-145.06;67.04
6530;BME280;3298;42.688;23.366;2023-03-25T04:59:23;51782.59;;;-145.06;66.96
6530;BME280;3298;42.688;23.366;2023-03-25T05:01:53;51772.34;;;-145.06;67.14
6530;BME280;3298;42.688;23.366;2023-03-25T05:04:19;51782.59;;;-145.06;67.14
6530;BME280;3298;42.688;23.366;2023-03-25T05:06:49;51770.31;;;-145.06;67.35
6530;BME280;3298;42.688;23.366;2023-03-25T05:09:18;51807.16;;;-145.06;67.22
6530;BME280;3298;42.688;23.366;2023-03-25T05:11:47;51807.16;;;-145.06;66.76
6530;BME280;3298;42.688;23.366;2023-03-25T05:14:15;51786.69;;;-145.06;66.28
6530;BME280;3298;42.688;23.366;2023-03-25T05:16:43;51782.59;;;-145.06;65.81
6530;BME280;3298;42.688;23.366;2023-03-25T05:19:12;51790.78;;;-145.06;65.41
6530;BME280;3298;42.688;23.366;2023-03-25T05:21:39;51762.13;;;-145.06;65.05
6530;BME280;3298;42.688;23.366;2023-03-25T05:24:07;51794.88;;;-145.06;64.29
6530;BME280;3298;42.688;23.366;2023-03-25T05:26:35;51794.88;;;-145.06;63.48
6530;BME280;3298;42.688;23.366;2023-03-25T05:29:05;51786.69;;;-145.06;62.51
6530;BME280;3298;42.688;23.366;2023-03-25T05:31:33;51766.22;;;-145.06;61.89
6530;BME280;3298;42.688;23.366;2023-03-25T05:34:00;51798.97;;;-145.06;61.31
6530;BME280;3298;42.688;23.366;2023-03-25T05:36:32;51780.53;;;-145.06;60.37
6530;BME280;3298;42.688;23.366;2023-03-25T05:38:59;51798.97;;;-145.06;60.63
6530;BME280;3298;42.688;23.366;2023-03-25T05:41:27;51782.59;;;-145.06;59.79
6530;BME280;3298;42.688;23.366;2023-03-25T05:43:58;51778.50;;;-145.06;59.53
6530;BME280;3298;42.688;23.366;2023-03-25T05:46:26;51798.97;;;-145.06;59.09
6530;BME280;3298;42.688;23.366;2023-03-25T05:48:54;51782.59;;;-145.06;59.06
6530;BME280;3298;42.688;23.366;2023-03-25T05:51:23;51815.34;;;-145.06;58.80
6530;BME280;3298;42.688;23.366;2023-03-25T05:53:52;51803.06;;;-145.06;59.20
6530;BME280;3298;42.688;23.366;2023-03-25T05:56:20;51778.50;;;-145.06;58.35
6530;BME280;3298;42.688;23.366;2023-03-25T05:58:50;51778.50;;;-145.06;58.54
6530;BME280;3298;42.688;23.366;2023-03-25T06:01:19;51798.97;;;-145.06;58.57
6530;BME280;3298;42.688;23.366;2023-03-25T06:03:47;51813.28;;;-145.06;58.37
6530;BME280;3298;42.688;23.366;2023-03-25T06:06:14;51778.50;;;-145.06;59.09
6530;BME280;3298;42.688;23.366;2023-03-25T06:08:43;51801.00;;;-145.06;58.71
6530;BME280;3298;42.688;23.366;2023-03-25T06:11:12;51770.31;;;-145.06;59.34
6530;BME280;3298;42.688;23.366;2023-03-25T06:13:40;51786.69;;;-145.06;59.25
6530;BME280;3298;42.688;23.366;2023-03-25T06:16:14;51778.50;;;-145.06;59.53
6530;BME280;3298;42.688;23.366;2023-03-25T06:18:43;51790.78;;;-145.06;59.12
6530;BME280;3298;42.688;23.366;2023-03-25T06:21:15;51801.00;;;-145.06;59.33
6530;BME280;3298;42.688;23.366;2023-03-25T06:23:42;51770.31;;;-145.06;59.41
6530;BME280;3298;42.688;23.366;2023-03-25T06:26:09;51798.97;;;-145.06;59.35
6530;BME280;3298;42.688;23.366;2023-03-25T06:28:37;51780.53;;;-145.06;58.83
6530;BME280;3298;42.688;23.366;2023-03-25T06:31:04;51766.22;;;-145.06;59.04
6530;BME280;3298;42.688;23.366;2023-03-25T06:33:32;51794.88;;;-145.06;58.32
6530;BME280;3298;42.688;23.366;2023-03-25T06:36:00;51786.69;;;-145.06;59.04
6530;BME280;3298;42.688;23.366;2023-03-25T06:38:27;51780.53;;;-145.06;58.50
6530;BME280;3298;42.688;23.366;2023-03-25T06:40:54;51786.69;;;-145.06;58.92
6530;BME280;3298;42.688;23.366;2023-03-25T06:43:21;51774.41;;;-145.06;59.29
6530;BME280;3298;42.688;23.366;2023-03-25T06:45:50;51798.97;;;-145.06;58.88
6530;BME280;3298;42.688;23.366;2023-03-25T06:48:17;51801.00;;;-145.06;58.30
6530;BME280;3298;42.688;23.366;2023-03-25T06:50:44;51807.16;;;-145.06;58.28
6530;BME280;3298;42.688;23.366;2023-03-25T06:53:11;51805.09;;;-145.06;57.93
6530;BME280;3298;42.688;23.366;2023-03-25T06:55:38;51794.88;;;-145.06;58.45
6530;BME280;3298;42.688;23.366;2023-03-25T06:58:05;51790.78;;;-145.06;58.83
6530;BME280;3298;42.688;23.366;2023-03-25T07:00:32;51807.16;;;-145.06;58.45
6530;BME280;3298;42.688;23.366;2023-03-25T07:03:00;51805.09;;;-145.06;57.83
6530;BME280;3298;42.688;23.366;2023-03-25T07:05:27;51784.63;;;-145.06;57.46
6530;BME280;3298;42.688;23.366;2023-03-25T07:07:54;51780.53;;;-145.06;57.50
6530;BME280;3298;42.688;23.366;2023-03-25T07:10:21;51815.34;;;-145.06;56.99
6530;BME280;3298;42.688;23.366;2023-03-25T07:12:48;51794.88;;;-145.06;57.15
6530;BME280;3298;42.688;23.366;2023-03-25T07:15:14;51803.06;;;-145.06;57.19
6530;BME280;3298;42.688;23.366;2023-03-25T07:17:41;51817.38;;;-145.06;56.53
6530;BME280;3298;42.688;23.366;2023-03-25T07:20:10;51801.00;;;-145.06;56.61
6530;BME280;3298;42.688;23.366;2023-03-25T07:22:37;51788.72;;;-145.06;55.90
6530;BME280;3298;42.688;23.366;2023-03-25T07:25:05;51827.63;;;-145.06;55.80
6530;BME280;3298;42.688;23.366;2023-03-25T07:27:32;51803.06;;;-145.06;56.50
6530;BME280;3298;42.688;23.366;2023-03-25T07:29:58;51794.88;;;-145.06;55.69
6530;BME280;3298;42.688;23.366;2023-03-25T07:32:25;51796.91;;;-145.06;56.03
6530;BME280;3298;42.688;23.366;2023-03-25T07:34:52;51819.44;;;-145.06;55.56
6530;BME280;3298;42.688;23.366;2023-03-25T07:37:20;51803.06;;;-145.06;55.31
6530;BME280;3298;42.688;23.366;2023-03-25T07:39:47;51801.00;;;-145.06;55.09
6530;BME280;3298;42.688;23.366;2023-03-25T07:42:13;51798.97;;;-145.06;54.83
6530;BME280;3298;42.688;23.366;2023-03-25T07:44:40;51794.88;;;-145.06;54.80
6530;BME280;3298;42.688;23.366;2023-03-25T07:47:07;51778.50;;;-145.06;54.50
6530;BME280;3298;42.688;23.366;2023-03-25T07:49:34;51815.34;;;-145.06;54.36
6530;BME280;3298;42.688;23.366;2023-03-25T07:52:00;51815.34;;;-145.06;53.73
6530;BME280;3298;42.688;23.366;2023-03-25T07:54:28;51776.44;;;-145.06;53.49
6530;BME280;3298;42.688;23.366;2023-03-25T07:56:55;51815.34;;;-145.06;53.21
6530;BME280;3298;42.688;23.366;2023-03-25T07:59:23;51815.34;;;-145.06;53.73
6530;BME280;3298;42.688;23.366;2023-03-25T08:01:50;51807.16;;;-145.06;52.81
6530;BME280;3298;42.688;23.366;2023-03-25T08:04:17;51811.25;;;-145.06;52.52
6530;BME280;3298;42.688;23.366;2023-03-25T08:06:44;51807.16;;;-145.06;52.45
6530;BME280;3298;42.688;23.366;2023-03-25T08:09:10;51819.44;;;-145.06;51.77
6530;BME280;3298;42.688;23.366;2023-03-25T08:11:39;51811.25;;;-145.06;52.19
6530;BME280;3298;42.688;23.366;2023-03-25T08:14:05;51846.03;;;-145.06;51.93
6530;BME280;3298;42.688;23.366;2023-03-25T08:16:32;51794.88;;;-145.06;50.91
6530;BME280;3298;42.688;23.366;2023-03-25T08:18:59;51815.34;;;-145.06;51.83
6530;BME280;3298;42.688;23.366;2023-03-25T08:21:26;51844.00;;;-145.06;51.09
6530;BME280;3298;42.688;23.366;2023-03-25T08:23:55;51803.06;;;-145.06;51.06
6530;BME280;3298;42.688;23.366;2023-03-25T08:26:27;51852.19;;;-145.06;50.65
6530;BME280;3298;42.688;23.366;2023-03-25T08:28:55;51819.44;;;-145.06;49.88
6530;BME280;3298;42.688;23.366;2023-03-25T08:31:22;51811.25;;;-145.06;49.95
6530;BME280;3298;42.688;23.366;2023-03-25T08:33:49;51819.44;;;-145.06;50.39
6530;BME280;3298;42.688;23.366;2023-03-25T08:36:16;51827.63;;;-145.06;49.79
6530;BME280;3298;42.688;23.366;2023-03-25T08:38:47;51819.44;;;-145.06;49.60
6530;BME280;3298;42.688;23.366;2023-03-25T08:41:15;51823.53;;;-145.06;49.93
6530;BME280;3298;42.688;23.366;2023-03-25T08:43:42;51827.63;;;-145.06;49.51
6530;BME280;3298;42.688;23.366;2023-03-25T08:46:10;51831.72;;;-145.06;48.57
6530;BME280;3298;42.688;23.366;2023-03-25T08:48:37;51831.72;;;-145.06;48.72
6530;BME280;3298;42.688;23.366;2023-03-25T08:51:04;51827.63;;;-145.06;48.72
6530;BME280;3298;42.688;23.366;2023-03-25T08:53:31;51897.19;;;-145.06;48.03
6530;BME280;3298;42.688;23.366;2023-03-25T08:55:58;51833.75;;;-145.06;47.96
6530;BME280;3298;42.688;23.366;2023-03-25T08:58:25;51807.16;;;-145.06;47.15
6530;BME280;3298;42.688;23.366;2023-03-25T09:00:53;51809.19;;;-145.06;48.14
6530;BME280;3298;42.688;23.366;2023-03-25T09:03:22;51848.09;;;-145.06;48.24
6530;BME280;3298;42.688;23.366;2023-03-25T09:05:51;51811.25;;;-145.06;47.83
6530;BME280;3298;42.688;23.366;2023-03-25T09:08:18;51790.78;;;-145.06;47.66
6530;BME280;3298;42.688;23.366;2023-03-25T09:10:45;51848.09;;;-145.06;47.42
6530;BME280;3298;42.688;23.366;2023-03-25T09:13:12;51841.94;;;-145.06;47.23
6530;BME280;3298;42.688;23.366;2023-03-25T09:15:40;51819.44;;;-145.06;46.89
6530;BME280;3298;42.688;23.366;2023-03-25T09:18:06;51837.84;;;-145.06;46.76
6530;BME280;3298;42.688;23.366;2023-03-25T09:20:35;51844.00;;;-145.06;46.78
6530;BME280;3298;42.688;23.366;2023-03-25T09:23:02;51831.72;;;-145.06;46.21
6530;BME280;3298;42.688;23.366;2023-03-25T09:25:29;51844.00;;;-145.06;46.19
6530;BME280;3298;42.688;23.366;2023-03-25T09:27:56;51848.09;;;-145.06;45.88
6530;BME280;3298;42.688;23.366;2023-03-25T09:30:23;51844.00;;;-145.06;45.58
6530;BME280;3298;42.688;23.366;2023-03-25T09:32:49;51846.03;;;-145.06;44.76
6530;BME280;3298;42.688;23.366;2023-03-25T09:35:16;51854.22;;;-145.06;44.92
6530;BME280;3298;42.688;23.366;2023-03-25T09:37:44;51852.19;;;-145.06;45.37
6530;BME280;3298;42.688;23.366;2023-03-25T09:40:13;51860.38;;;-145.06;45.31
6530;BME280;3298;42.688;23.366;2023-03-25T09:42:51;51844.00;;;-145.06;45.14
6530;BME280;3298;42.688;23.366;2023-03-25T09:45:29;51846.03;;;-145.06;44.90
6530;BME280;3298;42.688;23.366;2023-03-25T09:48:00;51860.38;;;-145.06;44.22
6530;BME280;3298;42.688;23.366;2023-03-25T09:50:29;51844.00;;;-145.06;44.04
6530;BME280;3298;42.688;23.366;2023-03-25T09:53:04;51835.81;;;-145.06;43.36
6530;BME280;3298;42.688;23.366;2023-03-25T09:55:37;51839.91;;;-145.06;43.31
6530;BME280;3298;42.688;23.366;2023-03-25T09:58:23;51858.31;;;-145.06;43.38
6530;BME280;3298;42.688;23.366;2023-03-25T10:00:55;51866.50;;;-145.06;43.27
6530;BME280;3298;42.688;23.366;2023-03-25T10:03:27;51844.00;;;-145.06;42.27
6530;BME280;3298;42.688;23.366;2023-03-25T10:06:11;51866.50;;;-145.06;42.17
6530;BME280;3298;42.688;23.366;2023-03-25T10:08:59;51866.50;;;-145.06;41.25
6530;BME280;3298;42.688;23.366;2023-03-25T10:11:32;51856.28;;;-145.06;40.68
6530;BME280;3298;42.688;23.366;2023-03-25T10:14:06;51880.81;;;-145.06;40.62
6530;BME280;3298;42.688;23.366;2023-03-25T10:16:44;51878.78;;;-145.06;40.54
6530;BME280;3298;42.688;23.366;2023-03-25T10:19:29;51876.75;;;-145.06;40.32
6530;BME280;3298;42.688;23.366;2023-03-25T10:22:03;51884.91;;;-145.06;38.11
6530;BME280;3298;42.688;23.366;2023-03-25T10:24:35;51864.47;;;-145.06;37.42
6530;BME280;3298;42.688;23.366;2023-03-25T10:27:10;51893.09;;;-145.06;36.77
6530;BME280;3298;42.688;23.366;2023-03-25T10:29:44;51889.00;;;-145.06;37.16
6530;BME280;3298;42.688;23.366;2023-03-25T10:32:16;51893.09;;;-145.06;36.51
6530;BME280;3298;42.688;23.366;2023-03-25T10:34:47;51876.75;;;-145.06;37.18
6530;BME280;3298;42.688;23.366;2023-03-25T10:37:27;51889.00;;;-145.06;37.04
6530;BME280;3298;42.688;23.366;2023-03-25T10:39:59;51878.78;;;-145.06;36.68
6530;BME280;3298;42.688;23.366;2023-03-25T10:42:39;51895.16;;;-145.06;36.54
6530;BME280;3298;42.688;23.366;2023-03-25T10:45:11;51913.56;;;-145.06;36.25
6530;BME280;3298;42.688;23.366;2023-03-25T10:47:40;51891.06;;;-145.06;36.24
6530;BME280;3298;42.688;23.366;2023-03-25T10:50:13;51925.84;;;-145.06;36.09
6530;BME280;3298;42.688;23.366;2023-03-25T10:52:41;51913.56;;;-145.06;35.90
6530;BME280;3298;42.688;23.366;2023-03-25T10:55:20;51893.09;;;-145.06;35.71
6530;BME280;3298;42.688;23.366;2023-03-25T10:57:49;51893.09;;;-145.06;35.90
6530;BME280;3298;42.688;23.366;2023-03-25T11:00:17;51897.19;;;-145.06;36.16
6530;BME280;3298;42.688;23.366;2023-03-25T11:02:45;51897.19;;;-145.06;36.14
6530;BME280;3298;42.688;23.366;2023-03-25T11:05:14;51889.00;;;-145.06;35.39
6530;BME280;3298;42.688;23.366;2023-03-25T11:07:45;52091.66;;;-145.06;29.25
6530;BME280;3298;42.688;23.366;2023-03-25T11:10:19;52155.13;;;-145.06;28.37
6530;BME280;3298;42.688;23.366;2023-03-25T11:12:49;52063.00;;;-145.06;29.93
6530;BME280;3298;42.688;23.366;2023-03-25T11:15:19;51995.44;;;-145.06;31.63
6530;BME280;3298;42.688;23.366;2023-03-25T11:17:55;51936.09;;;-145.06;33.22
6530;BME280;3298;42.688;23.366;2023-03-25T11:20:27;51942.22;;;-145.06;34.02
6530;BME280;3298;42.688;23.366;2023-03-25T11:23:00;51929.94;;;-145.06;34.71
6530;BME280;3298;42.688;23.366;2023-03-25T11:25:32;51932.00;;;-145.06;34.63
6530;BME280;3298;42.688;23.366;2023-03-25T11:28:04;51893.09;;;-145.06;34.38
6530;BME280;3298;42.688;23.366;2023-03-25T11:30:35;51948.38;;;-145.06;34.20
6530;BME280;3298;42.688;23.366;2023-03-25T11:33:04;51929.94;;;-145.06;33.66
6530;BME280;3298;42.688;23.366;2023-03-25T11:35:36;51925.84;;;-145.06;34.24
6530;BME280;3298;42.688;23.366;2023-03-25T11:38:14;51954.50;;;-145.06;34.01
6530;BME280;3298;42.688;23.366;2023-03-25T11:40:51;51932.00;;;-145.06;33.61
6530;BME280;3298;42.688;23.366;2023-03-25T11:43:20;51960.66;;;-145.06;33.75
6530;BME280;3298;42.688;23.366;2023-03-25T11:45:48;51954.50;;;-145.06;34.16
6530;BME280;3298;42.688;23.366;2023-03-25T11:48:17;51946.31;;;-145.06;34.60
6530;BME280;3298;42.688;23.366;2023-03-25T11:50:47;51911.53;;;-145.06;34.98
6530;BME280;3298;42.688;23.366;2023-03-25T11:53:18;51927.91;;;-145.06;34.20
6530;BME280;3298;42.688;23.366;2023-03-25T11:55:46;51925.84;;;-145.06;33.81
6530;BME280;3298;42.688;23.366;2023-03-25T11:58:17;51946.31;;;-145.06;33.80
6530;BME280;3298;42.688;23.366;2023-03-25T12:00:47;51940.19;;;-145.06;33.78
6530;BME280;3298;42.688;23.366;2023-03-25T12:03:20;51934.03;;;-145.06;33.64
6530;BME280;3298;42.688;23.366;2023-03-25T12:05:58;51925.84;;;-145.06;33.68
6530;BME280;3298;42.688;23.366;2023-03-25T12:08:28;51921.75;;;-145.06;33.97
6530;BME280;3298;42.688;23.366;2023-03-25T12:11:00;51938.13;;;-145.06;34.26
6530;BME280;3298;42.688;23.366;2023-03-25T12:13:44;51921.75;;;-145.06;34.35
6530;BME280;3298;42.688;23.366;2023-03-25T12:16:23;51942.22;;;-145.06;34.53
6530;BME280;3298;42.688;23.366;2023-03-25T12:19:02;51921.75;;;-145.06;34.53
6530;BME280;3298;42.688;23.366;2023-03-25T12:21:39;51925.84;;;-145.06;34.46
6530;BME280;3298;42.688;23.366;2023-03-25T12:24:19;51901.28;;;-145.06;34.80
6530;BME280;3298;42.688;23.366;2023-03-25T12:26:59;51880.81;;;-145.06;34.86
6530;BME280;3298;42.688;23.366;2023-03-25T12:29:41;51917.66;;;-145.06;35.34
6530;BME280;3298;42.688;23.366;2023-03-25T12:32:19;51919.72;;;-145.06;35.08
6530;BME280;3298;42.688;23.366;2023-03-25T12:34:58;51913.56;;;-145.06;34.79
6530;BME280;3298;42.688;23.366;2023-03-25T12:37:33;51932.00;;;-145.06;35.17
6530;BME280;3298;42.688;23.366;2023-03-25T12:40:16;51905.38;;;-145.06;34.76
6530;BME280;3298;42.688;23.366;2023-03-25T12:42:55;51925.84;;;-145.06;35.23
6530;BME280;3298;42.688;23.366;2023-03-25T12:45:39;51882.88;;;-145.06;34.78
6530;BME280;3298;42.688;23.366;2023-03-25T12:48:17;51929.94;;;-145.06;35.05
6530;BME280;3298;42.688;23.366;2023-03-25T12:50:53;51913.56;;;-145.06;34.76
6530;BME280;3298;42.688;23.366;2023-03-25T12:53:39;51899.25;;;-145.06;35.00
6530;BME280;3298;42.688;23.366;2023-03-25T12:56:24;51911.53;;;-145.06;35.39
6530;BME280;3298;42.688;23.366;2023-03-25T12:59:08;51891.06;;;-145.06;35.28
6530;BME280;3298;42.688;23.366;2023-03-25T13:01:47;51923.81;;;-145.06;35.40
6530;BME280;3298;42.688;23.366;2023-03-25T13:04:42;51897.19;;;-145.06;35.42
6530;BME280;3298;42.688;23.366;2023-03-25T13:07:15;51897.19;;;-145.06;35.34
6530;BME280;3298;42.688;23.366;2023-03-25T13:09:52;51882.88;;;-145.06;35.78
6530;BME280;3298;42.688;23.366;2023-03-25T13:12:28;51880.81;;;-145.06;35.44